sensor_id;sensor_type;location;lat;lon;timestamp;P1;durP1;ratioP1;P2;durP2;ratioP2
54412;SDS011;41533;51.390;0.074;2022-08-21T00:02:02;1.75;;;1.02;;
54412;SDS011;41533;51.390;0.074;2022-08-21T00:04:30;0.85;;;0.60;;
54412;SDS011;41533;51.390;0.074;2022-08-21T00:06:57;5.10;;;0.82;;
54412;SDS011;41533;51.390;0.074;2022-08-21T00:09:25;2.05;;;1.20;;
54412;SDS011;41533;51.390;0.074;2022-08-21T00:11:52;3.65;;;0.98;;
54412;SDS011;41533;51.390;0.074;2022-08-21T00:14:19;3.72;;;1.13;;
54412;SDS011;41533;51.390;0.074;2022-08-21T00:16:47;1.85;;;0.93;;
54412;SDS011;41533;51.390;0.074;2022-08-21T00:19:14;5.32;;;0.80;;
54412;SDS011;41533;51.390;0.074;2022-08-21T00:21:41;7.13;;;1.48;;
54412;SDS011;41533;51.390;0.074;2022-08-21T00:24:11;1.77;;;0.88;;
54412;SDS011;41533;51.390;0.074;2022-08-21T00:26:38;3.03;;;1.08;;
54412;SDS011;41533;51.390;0.074;2022-08-21T00:29:06;1.95;;;0.90;;
54412;SDS011;41533;51.390;0.074;2022-08-21T00:31:33;3.15;;;1.20;;
54412;SDS011;41533;51.390;0.074;2022-08-21T00:34:00;2.38;;;0.73;;
54412;SDS011;41533;51.390;0.074;2022-08-21T00:36:28;4.72;;;1.10;;
54412;SDS011;41533;51.390;0.074;2022-08-21T00:38:56;1.85;;;1.00;;
54412;SDS011;41533;51.390;0.074;2022-08-21T00:41:23;4.40;;;1.00;;
54412;SDS011;41533;51.390;0.074;2022-08-21T00:44:03;2.40;;;0.85;;
54412;SDS011;41533;51.390;0.074;2022-08-21T00:46:30;2.67;;;0.93;;
54412;SDS011;41533;51.390;0.074;2022-08-21T00:48:58;4.78;;;1.10;;
54412;SDS011;41533;51.390;0.074;2022-08-21T00:51:28;1.58;;;0.65;;
54412;SDS011;41533;51.390;0.074;2022-08-21T00:53:56;5.80;;;1.17;;
54412;SDS011;41533;51.390;0.074;2022-08-21T00:56:24;1.50;;;0.63;;
54412;SDS011;41533;51.390;0.074;2022-08-21T00:58:53;5.28;;;1.52;;
54412;SDS011;41533;51.390;0.074;2022-08-21T01:01:21;1.58;;;0.68;;
54412;SDS011;41533;51.390;0.074;2022-08-21T01:03:48;3.00;;;0.60;;
54412;SDS011;41533;51.390;0.074;2022-08-21T01:06:16;2.22;;;0.93;;
54412;SDS011;41533;51.390;0.074;2022-08-21T01:08:43;4.53;;;0.93;;
54412;SDS011;41533;51.390;0.074;2022-08-21T01:11:14;3.10;;;1.05;;
54412;SDS011;41533;51.390;0.074;2022-08-21T01:13:41;2.45;;;0.95;;
54412;SDS011;41533;51.390;0.074;2022-08-21T01:16:13;3.53;;;1.20;;
54412;SDS011;41533;51.390;0.074;2022-08-21T01:18:43;2.35;;;0.90;;
54412;SDS011;41533;51.390;0.074;2022-08-21T01:21:18;1.33;;;0.82;;
54412;SDS011;41533;51.390;0.074;2022-08-21T01:23:48;1.27;;;0.82;;
54412;SDS011;41533;51.390;0.074;2022-08-21T01:26:16;2.50;;;1.10;;
54412;SDS011;41533;51.390;0.074;2022-08-21T01:28:50;4.75;;;1.30;;
54412;SDS011;41533;51.390;0.074;2022-08-21T01:31:19;5.63;;;1.10;;
54412;SDS011;41533;51.390;0.074;2022-08-21T01:33:50;4.43;;;1.08;;
54412;SDS011;41533;51.390;0.074;2022-08-21T01:36:17;1.73;;;0.77;;
54412;SDS011;41533;51.390;0.074;2022-08-21T01:38:45;1.95;;;0.80;;
54412;SDS011;41533;51.390;0.074;2022-08-21T01:41:14;1.92;;;0.70;;
54412;SDS011;41533;51.390;0.074;2022-08-21T01:43:42;1.10;;;0.77;;
54412;SDS011;41533;51.390;0.074;2022-08-21T01:46:09;6.68;;;1.00;;
54412;SDS011;41533;51.390;0.074;2022-08-21T01:48:37;1.40;;;0.77;;
54412;SDS011;41533;51.390;0.074;2022-08-21T01:51:04;4.72;;;1.35;;
54412;SDS011;41533;51.390;0.074;2022-08-21T01:53:32;0.77;;;0.50;;
54412;SDS011;41533;51.390;0.074;2022-08-21T01:56:03;5.28;;;0.77;;
54412;SDS011;41533;51.390;0.074;2022-08-21T01:58:31;1.55;;;0.95;;
54412;SDS011;41533;51.390;0.074;2022-08-21T02:00:58;4.25;;;1.15;;
54412;SDS011;41533;51.390;0.074;2022-08-21T02:03:25;3.00;;;0.60;;
54412;SDS011;41533;51.390;0.074;2022-08-21T02:06:02;2.05;;;0.90;;
54412;SDS011;41533;51.390;0.074;2022-08-21T02:08:30;1.92;;;0.70;;
54412;SDS011;41533;51.390;0.074;2022-08-21T02:10:57;1.10;;;0.57;;
54412;SDS011;41533;51.390;0.074;2022-08-21T02:13:24;2.03;;;0.80;;
54412;SDS011;41533;51.390;0.074;2022-08-21T02:15:52;3.47;;;1.23;;
54412;SDS011;41533;51.390;0.074;2022-08-21T02:18:19;2.60;;;1.30;;
54412;SDS011;41533;51.390;0.074;2022-08-21T02:20:47;4.72;;;1.02;;
54412;SDS011;41533;51.390;0.074;2022-08-21T02:23:14;8.90;;;1.38;;
54412;SDS011;41533;51.390;0.074;2022-08-21T02:25:42;3.10;;;1.13;;
54412;SDS011;41533;51.390;0.074;2022-08-21T02:28:10;1.23;;;0.68;;
54412;SDS011;41533;51.390;0.074;2022-08-21T02:30:40;1.60;;;0.68;;
54412;SDS011;41533;51.390;0.074;2022-08-21T02:33:08;1.80;;;0.73;;
54412;SDS011;41533;51.390;0.074;2022-08-21T02:35:36;0.65;;;0.60;;
54412;SDS011;41533;51.390;0.074;2022-08-21T02:38:07;2.17;;;0.65;;
54412;SDS011;41533;51.390;0.074;2022-08-21T02:40:40;0.98;;;0.70;;
54412;SDS011;41533;51.390;0.074;2022-08-21T02:43:09;4.60;;;0.80;;
54412;SDS011;41533;51.390;0.074;2022-08-21T02:45:37;0.50;;;0.50;;
54412;SDS011;41533;51.390;0.074;2022-08-21T02:48:06;2.95;;;0.73;;
54412;SDS011;41533;51.390;0.074;2022-08-21T02:50:35;3.10;;;1.05;;
54412;SDS011;41533;51.390;0.074;2022-08-21T02:53:03;7.05;;;1.05;;
54412;SDS011;41533;51.390;0.074;2022-08-21T02:55:32;6.15;;;1.13;;
54412;SDS011;41533;51.390;0.074;2022-08-21T02:58:00;3.40;;;0.68;;
54412;SDS011;41533;51.390;0.074;2022-08-21T03:00:28;2.00;;;0.80;;
54412;SDS011;41533;51.390;0.074;2022-08-21T03:02:56;1.33;;;0.82;;
54412;SDS011;41533;51.390;0.074;2022-08-21T03:05:24;3.28;;;0.85;;
54412;SDS011;41533;51.390;0.074;2022-08-21T03:07:51;2.47;;;0.50;;
54412;SDS011;41533;51.390;0.074;2022-08-21T03:10:19;4.50;;;0.88;;
54412;SDS011;41533;51.390;0.074;2022-08-21T03:12:47;2.67;;;0.68;;
54412;SDS011;41533;51.390;0.074;2022-08-21T03:15:16;4.35;;;0.90;;
54412;SDS011;41533;51.390;0.074;2022-08-21T03:17:44;1.05;;;0.60;;
54412;SDS011;41533;51.390;0.074;2022-08-21T03:20:13;3.50;;;0.98;;
54412;SDS011;41533;51.390;0.074;2022-08-21T03:22:41;3.97;;;1.20;;
54412;SDS011;41533;51.390;0.074;2022-08-21T03:25:08;7.47;;;0.98;;
54412;SDS011;41533;51.390;0.074;2022-08-21T03:27:37;3.78;;;0.75;;
54412;SDS011;41533;51.390;0.074;2022-08-21T03:30:05;5.25;;;1.52;;
54412;SDS011;41533;51.390;0.074;2022-08-21T03:32:33;5.20;;;0.95;;
54412;SDS011;41533;51.390;0.074;2022-08-21T03:35:00;6.28;;;0.88;;
54412;SDS011;41533;51.390;0.074;2022-08-21T03:37:29;0.73;;;0.60;;
54412;SDS011;41533;51.390;0.074;2022-08-21T03:39:56;6.13;;;1.35;;
54412;SDS011;41533;51.390;0.074;2022-08-21T03:42:23;1.20;;;0.88;;
54412;SDS011;41533;51.390;0.074;2022-08-21T03:44:50;5.53;;;1.13;;
54412;SDS011;41533;51.390;0.074;2022-08-21T03:47:18;7.53;;;1.08;;
54412;SDS011;41533;51.390;0.074;2022-08-21T03:49:45;4.28;;;1.13;;
54412;SDS011;41533;51.390;0.074;2022-08-21T03:52:13;2.95;;;0.70;;
54412;SDS011;41533;51.390;0.074;2022-08-21T03:54:40;2.00;;;0.98;;
54412;SDS011;41533;51.390;0.074;2022-08-21T03:57:08;4.00;;;0.80;;
54412;SDS011;41533;51.390;0.074;2022-08-21T03:59:36;8.77;;;1.27;;
54412;SDS011;41533;51.390;0.074;2022-08-21T04:02:04;3.90;;;0.82;;
54412;SDS011;41533;51.390;0.074;2022-08-21T04:04:31;9.75;;;1.13;;
54412;SDS011;41533;51.390;0.074;2022-08-21T04:06:59;3.65;;;0.95;;
54412;SDS011;41533;51.390;0.074;2022-08-21T04:09:26;4.65;;;0.95;;
54412;SDS011;41533;51.390;0.074;2022-08-21T04:11:54;3.95;;;0.60;;
54412;SDS011;41533;51.390;0.074;2022-08-21T04:14:21;7.95;;;1.70;;
54412;SDS011;41533;51.390;0.074;2022-08-21T04:16:49;1.77;;;1.13;;
54412;SDS011;41533;51.390;0.074;2022-08-21T04:19:16;2.17;;;1.00;;
54412;SDS011;41533;51.390;0.074;2022-08-21T04:21:43;2.05;;;0.95;;
54412;SDS011;41533;51.390;0.074;2022-08-21T04:24:11;4.90;;;1.48;;
54412;SDS011;41533;51.390;0.074;2022-08-21T04:26:38;5.75;;;1.02;;
54412;SDS011;41533;51.390;0.074;2022-08-21T04:29:06;1.30;;;0.70;;
54412;SDS011;41533;51.390;0.074;2022-08-21T04:31:34;1.83;;;0.70;;
54412;SDS011;41533;51.390;0.074;2022-08-21T04:34:02;2.40;;;1.13;;
54412;SDS011;41533;51.390;0.074;2022-08-21T04:36:29;3.80;;;1.48;;
54412;SDS011;41533;51.390;0.074;2022-08-21T04:38:57;2.22;;;0.88;;
54412;SDS011;41533;51.390;0.074;2022-08-21T04:41:24;6.50;;;1.15;;
54412;SDS011;41533;51.390;0.074;2022-08-21T04:43:53;3.20;;;1.20;;
54412;SDS011;41533;51.390;0.074;2022-08-21T04:46:22;8.13;;;1.13;;
54412;SDS011;41533;51.390;0.074;2022-08-21T04:48:50;3.08;;;0.98;;
54412;SDS011;41533;51.390;0.074;2022-08-21T04:51:18;6.03;;;1.08;;
54412;SDS011;41533;51.390;0.074;2022-08-21T04:53:57;5.65;;;1.00;;
54412;SDS011;41533;51.390;0.074;2022-08-21T04:57:00;0.55;;;0.50;;
54412;SDS011;41533;51.390;0.074;2022-08-21T05:01:46;6.13;;;1.08;;
54412;SDS011;41533;51.390;0.074;2022-08-21T05:04:14;6.22;;;1.33;;
54412;SDS011;41533;51.390;0.074;2022-08-21T05:06:43;1.33;;;0.80;;
54412;SDS011;41533;51.390;0.074;2022-08-21T05:09:12;3.08;;;1.23;;
54412;SDS011;41533;51.390;0.074;2022-08-21T05:11:39;5.93;;;1.00;;
54412;SDS011;41533;51.390;0.074;2022-08-21T05:14:08;3.90;;;1.48;;
54412;SDS011;41533;51.390;0.074;2022-08-21T05:16:35;2.45;;;1.13;;
54412;SDS011;41533;51.390;0.074;2022-08-21T05:19:06;6.47;;;1.40;;
54412;SDS011;41533;51.390;0.074;2022-08-21T05:21:35;3.65;;;1.55;;
54412;SDS011;41533;51.390;0.074;2022-08-21T05:24:02;3.92;;;0.90;;
54412;SDS011;41533;51.390;0.074;2022-08-21T05:26:30;2.80;;;0.65;;
54412;SDS011;41533;51.390;0.074;2022-08-21T05:28:57;0.95;;;0.63;;
54412;SDS011;41533;51.390;0.074;2022-08-21T05:31:24;1.45;;;0.70;;
54412;SDS011;41533;51.390;0.074;2022-08-21T05:33:52;0.80;;;0.80;;
54412;SDS011;41533;51.390;0.074;2022-08-21T05:36:19;5.40;;;1.58;;
54412;SDS011;41533;51.390;0.074;2022-08-21T05:38:46;1.90;;;0.85;;
54412;SDS011;41533;51.390;0.074;2022-08-21T05:41:13;6.60;;;1.15;;
54412;SDS011;41533;51.390;0.074;2022-08-21T05:43:41;2.83;;;0.68;;
54412;SDS011;41533;51.390;0.074;2022-08-21T05:46:08;4.32;;;0.85;;
54412;SDS011;41533;51.390;0.074;2022-08-21T05:48:35;2.03;;;0.95;;
54412;SDS011;41533;51.390;0.074;2022-08-21T05:51:07;3.70;;;1.00;;
54412;SDS011;41533;51.390;0.074;2022-08-21T05:53:35;2.67;;;0.73;;
54412;SDS011;41533;51.390;0.074;2022-08-21T05:56:03;2.90;;;1.17;;
54412;SDS011;41533;51.390;0.074;2022-08-21T05:58:31;1.92;;;1.10;;
54412;SDS011;41533;51.390;0.074;2022-08-21T06:00:59;5.50;;;1.05;;
54412;SDS011;41533;51.390;0.074;2022-08-21T06:03:34;3.35;;;0.82;;
54412;SDS011;41533;51.390;0.074;2022-08-21T06:06:02;2.55;;;0.85;;
54412;SDS011;41533;51.390;0.074;2022-08-21T06:08:29;2.72;;;0.75;;
54412;SDS011;41533;51.390;0.074;2022-08-21T06:10:57;5.35;;;0.73;;
54412;SDS011;41533;51.390;0.074;2022-08-21T06:13:25;3.00;;;0.77;;
54412;SDS011;41533;51.390;0.074;2022-08-21T06:16:12;2.85;;;0.82;;
54412;SDS011;41533;51.390;0.074;2022-08-21T06:18:42;2.50;;;0.90;;
54412;SDS011;41533;51.390;0.074;2022-08-21T06:21:10;3.40;;;1.17;;
54412;SDS011;41533;51.390;0.074;2022-08-21T06:23:38;1.73;;;0.82;;
54412;SDS011;41533;51.390;0.074;2022-08-21T06:26:06;2.80;;;1.27;;
54412;SDS011;41533;51.390;0.074;2022-08-21T06:28:34;6.50;;;1.10;;
54412;SDS011;41533;51.390;0.074;2022-08-21T06:31:01;5.18;;;1.00;;
54412;SDS011;41533;51.390;0.074;2022-08-21T06:33:36;4.25;;;1.48;;
54412;SDS011;41533;51.390;0.074;2022-08-21T06:36:03;2.30;;;0.70;;
54412;SDS011;41533;51.390;0.074;2022-08-21T06:38:30;5.38;;;0.60;;
54412;SDS011;41533;51.390;0.074;2022-08-21T06:40:58;2.53;;;1.10;;
54412;SDS011;41533;51.390;0.074;2022-08-21T06:43:25;3.33;;;1.02;;
54412;SDS011;41533;51.390;0.074;2022-08-21T06:45:58;4.15;;;0.95;;
54412;SDS011;41533;51.390;0.074;2022-08-21T06:48:25;1.55;;;0.80;;
54412;SDS011;41533;51.390;0.074;2022-08-21T06:50:53;1.60;;;0.68;;
54412;SDS011;41533;51.390;0.074;2022-08-21T06:53:20;3.83;;;0.80;;
54412;SDS011;41533;51.390;0.074;2022-08-21T06:55:48;1.85;;;1.00;;
54412;SDS011;41533;51.390;0.074;2022-08-21T06:58:15;1.55;;;0.85;;
54412;SDS011;41533;51.390;0.074;2022-08-21T07:00:44;3.15;;;1.10;;
54412;SDS011;41533;51.390;0.074;2022-08-21T07:03:26;3.08;;;0.80;;
54412;SDS011;41533;51.390;0.074;2022-08-21T07:05:57;1.77;;;1.05;;
54412;SDS011;41533;51.390;0.074;2022-08-21T07:08:25;9.07;;;1.23;;
54412;SDS011;41533;51.390;0.074;2022-08-21T07:10:54;3.05;;;0.82;;
54412;SDS011;41533;51.390;0.074;2022-08-21T07:13:22;4.22;;;1.00;;
54412;SDS011;41533;51.390;0.074;2022-08-21T07:15:49;3.40;;;1.10;;
54412;SDS011;41533;51.390;0.074;2022-08-21T07:18:17;2.42;;;0.80;;
54412;SDS011;41533;51.390;0.074;2022-08-21T07:20:44;5.78;;;0.88;;
54412;SDS011;41533;51.390;0.074;2022-08-21T07:23:19;4.05;;;0.85;;
54412;SDS011;41533;51.390;0.074;2022-08-21T07:25:48;3.88;;;0.95;;
54412;SDS011;41533;51.390;0.074;2022-08-21T07:28:15;5.63;;;1.00;;
54412;SDS011;41533;51.390;0.074;2022-08-21T07:30:43;1.45;;;1.08;;
54412;SDS011;41533;51.390;0.074;2022-08-21T07:33:10;1.27;;;1.00;;
54412;SDS011;41533;51.390;0.074;2022-08-21T07:35:37;4.10;;;1.08;;
54412;SDS011;41533;51.390;0.074;2022-08-21T07:38:05;2.58;;;1.25;;
54412;SDS011;41533;51.390;0.074;2022-08-21T07:40:32;6.65;;;1.00;;
54412;SDS011;41533;51.390;0.074;2022-08-21T07:43:00;1.67;;;0.90;;
54412;SDS011;41533;51.390;0.074;2022-08-21T07:45:27;3.67;;;1.20;;
54412;SDS011;41533;51.390;0.074;2022-08-21T07:47:54;6.43;;;0.98;;
54412;SDS011;41533;51.390;0.074;2022-08-21T07:50:23;1.33;;;0.77;;
54412;SDS011;41533;51.390;0.074;2022-08-21T07:52:51;3.10;;;0.90;;
54412;SDS011;41533;51.390;0.074;2022-08-21T07:55:19;6.50;;;1.08;;
54412;SDS011;41533;51.390;0.074;2022-08-21T07:57:48;6.50;;;0.85;;
54412;SDS011;41533;51.390;0.074;2022-08-21T08:00:17;3.10;;;0.82;;
54412;SDS011;41533;51.390;0.074;2022-08-21T08:02:46;3.80;;;0.95;;
54412;SDS011;41533;51.390;0.074;2022-08-21T08:05:17;3.90;;;1.10;;
54412;SDS011;41533;51.390;0.074;2022-08-21T08:07:44;2.03;;;1.10;;
54412;SDS011;41533;51.390;0.074;2022-08-21T08:10:12;2.05;;;0.65;;
54412;SDS011;41533;51.390;0.074;2022-08-21T08:12:39;1.80;;;0.63;;
54412;SDS011;41533;51.390;0.074;2022-08-21T08:15:08;5.00;;;1.15;;
54412;SDS011;41533;51.390;0.074;2022-08-21T08:17:36;4.13;;;1.42;;
54412;SDS011;41533;51.390;0.074;2022-08-21T08:20:06;1.67;;;0.73;;
54412;SDS011;41533;51.390;0.074;2022-08-21T08:22:34;2.95;;;0.98;;
54412;SDS011;41533;51.390;0.074;2022-08-21T08:25:02;3.13;;;0.80;;
54412;SDS011;41533;51.390;0.074;2022-08-21T08:27:35;2.45;;;0.65;;
54412;SDS011;41533;51.390;0.074;2022-08-21T08:30:02;3.90;;;0.80;;
54412;SDS011;41533;51.390;0.074;2022-08-21T08:32:30;5.75;;;1.58;;
54412;SDS011;41533;51.390;0.074;2022-08-21T08:34:57;2.78;;;1.13;;
54412;SDS011;41533;51.390;0.074;2022-08-21T08:37:24;2.25;;;1.00;;
54412;SDS011;41533;51.390;0.074;2022-08-21T08:39:52;4.32;;;1.10;;
54412;SDS011;41533;51.390;0.074;2022-08-21T08:45:05;3.33;;;0.90;;
54412;SDS011;41533;51.390;0.074;2022-08-21T08:47:35;3.38;;;1.20;;
54412;SDS011;41533;51.390;0.074;2022-08-21T08:50:04;3.35;;;0.85;;
54412;SDS011;41533;51.390;0.074;2022-08-21T08:52:37;4.80;;;0.77;;
54412;SDS011;41533;51.390;0.074;2022-08-21T08:57:38;1.55;;;0.82;;
54412;SDS011;41533;51.390;0.074;2022-08-21T09:00:08;3.25;;;0.88;;
54412;SDS011;41533;51.390;0.074;2022-08-21T09:02:41;1.20;;;0.65;;
54412;SDS011;41533;51.390;0.074;2022-08-21T09:05:21;1.70;;;0.67;;
54412;SDS011;41533;51.390;0.074;2022-08-21T09:10:38;2.42;;;0.93;;
54412;SDS011;41533;51.390;0.074;2022-08-21T09:26:11;2.38;;;1.23;;
54412;SDS011;41533;51.390;0.074;2022-08-21T09:28:39;1.73;;;0.60;;
54412;SDS011;41533;51.390;0.074;2022-08-21T09:31:11;2.50;;;0.45;;
54412;SDS011;41533;51.390;0.074;2022-08-21T09:33:42;0.98;;;0.57;;
54412;SDS011;41533;51.390;0.074;2022-08-21T09:36:10;2.50;;;0.77;;
54412;SDS011;41533;51.390;0.074;2022-08-21T09:38:37;3.55;;;0.80;;
54412;SDS011;41533;51.390;0.074;2022-08-21T09:41:06;3.30;;;1.05;;
54412;SDS011;41533;51.390;0.074;2022-08-21T09:43:35;2.40;;;0.75;;
54412;SDS011;41533;51.390;0.074;2022-08-21T09:46:05;2.38;;;0.70;;
54412;SDS011;41533;51.390;0.074;2022-08-21T09:48:41;0.77;;;0.50;;
54412;SDS011;41533;51.390;0.074;2022-08-21T09:51:09;2.60;;;1.10;;
54412;SDS011;41533;51.390;0.074;2022-08-21T09:53:38;1.95;;;0.70;;
54412;SDS011;41533;51.390;0.074;2022-08-21T09:56:29;2.38;;;0.77;;
54412;SDS011;41533;51.390;0.074;2022-08-21T09:59:18;2.28;;;0.77;;
54412;SDS011;41533;51.390;0.074;2022-08-21T10:01:47;3.28;;;0.82;;
54412;SDS011;41533;51.390;0.074;2022-08-21T10:04:19;2.20;;;0.98;;
54412;SDS011;41533;51.390;0.074;2022-08-21T10:06:46;3.08;;;0.60;;
54412;SDS011;41533;51.390;0.074;2022-08-21T10:09:15;5.95;;;0.80;;
54412;SDS011;41533;51.390;0.074;2022-08-21T10:17:50;2.80;;;0.90;;
54412;SDS011;41533;51.390;0.074;2022-08-21T10:20:04;2.15;;;0.85;;
54412;SDS011;41533;51.390;0.074;2022-08-21T10:27:40;3.00;;;0.85;;
54412;SDS011;41533;51.390;0.074;2022-08-21T10:30:15;2.00;;;0.80;;
54412;SDS011;41533;51.390;0.074;2022-08-21T10:32:52;4.05;;;1.20;;
54412;SDS011;41533;51.390;0.074;2022-08-21T10:35:28;2.22;;;0.85;;
54412;SDS011;41533;51.390;0.074;2022-08-21T10:41:49;5.20;;;1.23;;
54412;SDS011;41533;51.390;0.074;2022-08-21T10:47:09;4.80;;;0.70;;
54412;SDS011;41533;51.390;0.074;2022-08-21T10:51:50;2.58;;;0.60;;
54412;SDS011;41533;51.390;0.074;2022-08-21T10:56:54;1.00;;;0.73;;
54412;SDS011;41533;51.390;0.074;2022-08-21T10:59:28;2.03;;;0.85;;
54412;SDS011;41533;51.390;0.074;2022-08-21T11:02:01;5.30;;;1.30;;
54412;SDS011;41533;51.390;0.074;2022-08-21T11:04:50;4.60;;;1.73;;
54412;SDS011;41533;51.390;0.074;2022-08-21T11:07:28;2.65;;;0.65;;
54412;SDS011;41533;51.390;0.074;2022-08-21T11:10:02;1.70;;;0.80;;
54412;SDS011;41533;51.390;0.074;2022-08-21T11:12:34;7.32;;;0.90;;
54412;SDS011;41533;51.390;0.074;2022-08-21T11:18:44;2.75;;;0.50;;
54412;SDS011;41533;51.390;0.074;2022-08-21T11:20:50;3.92;;;0.98;;
54412;SDS011;41533;51.390;0.074;2022-08-21T11:23:21;1.52;;;0.65;;
54412;SDS011;41533;51.390;0.074;2022-08-21T11:25:53;4.05;;;1.10;;
54412;SDS011;41533;51.390;0.074;2022-08-21T11:28:31;2.85;;;1.00;;
54412;SDS011;41533;51.390;0.074;2022-08-21T11:41:29;1.20;;;0.50;;
54412;SDS011;41533;51.390;0.074;2022-08-21T11:44:02;2.35;;;0.80;;
54412;SDS011;41533;51.390;0.074;2022-08-21T11:46:41;3.85;;;1.02;;
54412;SDS011;41533;51.390;0.074;2022-08-21T11:57:00;5.97;;;0.93;;
54412;SDS011;41533;51.390;0.074;2022-08-21T12:01:58;1.33;;;0.73;;
54412;SDS011;41533;51.390;0.074;2022-08-21T12:04:27;3.30;;;0.90;;
54412;SDS011;41533;51.390;0.074;2022-08-21T12:06:55;3.78;;;0.65;;
54412;SDS011;41533;51.390;0.074;2022-08-21T12:14:46;4.50;;;1.38;;
54412;SDS011;41533;51.390;0.074;2022-08-21T12:17:21;1.42;;;0.75;;
54412;SDS011;41533;51.390;0.074;2022-08-21T12:19:59;1.48;;;0.80;;
54412;SDS011;41533;51.390;0.074;2022-08-21T12:22:37;6.43;;;1.83;;
54412;SDS011;41533;51.390;0.074;2022-08-21T12:25:09;4.63;;;1.55;;
54412;SDS011;41533;51.390;0.074;2022-08-21T12:27:47;1.65;;;1.10;;
54412;SDS011;41533;51.390;0.074;2022-08-21T12:30:33;4.20;;;1.05;;
54412;SDS011;41533;51.390;0.074;2022-08-21T12:33:03;2.20;;;0.90;;
54412;SDS011;41533;51.390;0.074;2022-08-21T12:35:32;2.85;;;1.23;;
54412;SDS011;41533;51.390;0.074;2022-08-21T12:38:07;5.45;;;1.38;;
54412;SDS011;41533;51.390;0.074;2022-08-21T12:43:31;2.88;;;0.88;;
54412;SDS011;41533;51.390;0.074;2022-08-21T12:46:00;3.03;;;1.40;;
54412;SDS011;41533;51.390;0.074;2022-08-21T12:48:51;3.45;;;0.82;;
54412;SDS011;41533;51.390;0.074;2022-08-21T12:51:27;1.65;;;0.80;;
54412;SDS011;41533;51.390;0.074;2022-08-21T12:53:56;4.57;;;2.28;;
54412;SDS011;41533;51.390;0.074;2022-08-21T12:56:25;6.28;;;1.05;;
54412;SDS011;41533;51.390;0.074;2022-08-21T12:58:57;2.60;;;1.05;;
54412;SDS011;41533;51.390;0.074;2022-08-21T13:01:30;4.97;;;1.80;;
54412;SDS011;41533;51.390;0.074;2022-08-21T13:03:58;4.00;;;1.50;;
54412;SDS011;41533;51.390;0.074;2022-08-21T13:06:32;5.68;;;2.67;;
54412;SDS011;41533;51.390;0.074;2022-08-21T13:09:04;3.08;;;1.45;;
54412;SDS011;41533;51.390;0.074;2022-08-21T13:14:00;6.32;;;2.22;;
54412;SDS011;41533;51.390;0.074;2022-08-21T13:16:31;2.70;;;1.10;;
54412;SDS011;41533;51.390;0.074;2022-08-21T13:19:00;2.70;;;1.33;;
54412;SDS011;41533;51.390;0.074;2022-08-21T13:21:28;7.05;;;1.83;;
54412;SDS011;41533;51.390;0.074;2022-08-21T13:27:32;7.60;;;2.10;;
54412;SDS011;41533;51.390;0.074;2022-08-21T13:32:39;3.33;;;1.58;;
54412;SDS011;41533;51.390;0.074;2022-08-21T13:35:12;3.13;;;1.38;;
54412;SDS011;41533;51.390;0.074;2022-08-21T13:37:41;3.65;;;1.35;;
54412;SDS011;41533;51.390;0.074;2022-08-21T13:43:15;3.33;;;1.35;;
54412;SDS011;41533;51.390;0.074;2022-08-21T13:45:48;4.17;;;1.83;;
54412;SDS011;41533;51.390;0.074;2022-08-21T13:48:16;2.50;;;1.05;;
54412;SDS011;41533;51.390;0.074;2022-08-21T13:50:43;3.40;;;1.20;;
54412;SDS011;41533;51.390;0.074;2022-08-21T13:53:27;3.50;;;1.98;;
54412;SDS011;41533;51.390;0.074;2022-08-21T13:55:56;4.57;;;1.20;;
54412;SDS011;41533;51.390;0.074;2022-08-21T13:58:31;2.92;;;1.17;;
54412;SDS011;41533;51.390;0.074;2022-08-21T14:01:00;2.67;;;1.30;;
54412;SDS011;41533;51.390;0.074;2022-08-21T14:03:33;4.50;;;2.25;;
54412;SDS011;41533;51.390;0.074;2022-08-21T14:06:01;3.38;;;1.27;;
54412;SDS011;41533;51.390;0.074;2022-08-21T14:10:56;5.57;;;0.80;;
54412;SDS011;41533;51.390;0.074;2022-08-21T14:15:56;7.40;;;2.50;;
54412;SDS011;41533;51.390;0.074;2022-08-21T14:18:23;2.10;;;1.45;;
54412;SDS011;41533;51.390;0.074;2022-08-21T14:21:06;5.90;;;1.45;;
54412;SDS011;41533;51.390;0.074;2022-08-21T14:23:33;2.83;;;1.17;;
54412;SDS011;41533;51.390;0.074;2022-08-21T14:26:02;2.35;;;1.20;;
54412;SDS011;41533;51.390;0.074;2022-08-21T14:28:31;3.15;;;1.65;;
54412;SDS011;41533;51.390;0.074;2022-08-21T14:31:10;3.40;;;1.13;;
54412;SDS011;41533;51.390;0.074;2022-08-21T14:33:40;6.05;;;1.10;;
54412;SDS011;41533;51.390;0.074;2022-08-21T14:36:07;7.10;;;2.25;;
54412;SDS011;41533;51.390;0.074;2022-08-21T14:38:36;1.10;;;1.00;;
54412;SDS011;41533;51.390;0.074;2022-08-21T14:41:04;3.88;;;1.20;;
54412;SDS011;41533;51.390;0.074;2022-08-21T14:43:34;2.88;;;1.58;;
54412;SDS011;41533;51.390;0.074;2022-08-21T14:46:01;8.00;;;1.50;;
54412;SDS011;41533;51.390;0.074;2022-08-21T14:48:29;2.05;;;1.05;;
54412;SDS011;41533;51.390;0.074;2022-08-21T14:50:56;3.63;;;1.50;;
54412;SDS011;41533;51.390;0.074;2022-08-21T14:53:26;2.67;;;0.85;;
54412;SDS011;41533;51.390;0.074;2022-08-21T14:55:53;2.58;;;1.20;;
54412;SDS011;41533;51.390;0.074;2022-08-21T14:58:37;2.45;;;1.30;;
54412;SDS011;41533;51.390;0.074;2022-08-21T15:01:06;3.35;;;1.25;;
54412;SDS011;41533;51.390;0.074;2022-08-21T15:03:34;3.90;;;1.20;;
54412;SDS011;41533;51.390;0.074;2022-08-21T15:06:02;2.53;;;1.25;;
54412;SDS011;41533;51.390;0.074;2022-08-21T15:08:29;2.72;;;1.05;;
54412;SDS011;41533;51.390;0.074;2022-08-21T15:10:56;1.92;;;1.10;;
54412;SDS011;41533;51.390;0.074;2022-08-21T15:13:38;3.33;;;1.55;;
54412;SDS011;41533;51.390;0.074;2022-08-21T15:16:05;2.67;;;1.10;;
54412;SDS011;41533;51.390;0.074;2022-08-21T15:18:35;4.05;;;1.67;;
54412;SDS011;41533;51.390;0.074;2022-08-21T15:21:02;0.82;;;0.70;;
54412;SDS011;41533;51.390;0.074;2022-08-21T15:23:29;1.92;;;1.17;;
54412;SDS011;41533;51.390;0.074;2022-08-21T15:25:57;3.30;;;1.55;;
54412;SDS011;41533;51.390;0.074;2022-08-21T15:28:28;2.83;;;1.33;;
54412;SDS011;41533;51.390;0.074;2022-08-21T15:30:58;5.05;;;1.77;;
54412;SDS011;41533;51.390;0.074;2022-08-21T15:33:26;2.88;;;1.50;;
54412;SDS011;41533;51.390;0.074;2022-08-21T15:35:54;4.25;;;1.60;;
54412;SDS011;41533;51.390;0.074;2022-08-21T15:38:21;2.53;;;1.70;;
54412;SDS011;41533;51.390;0.074;2022-08-21T15:40:48;2.00;;;1.30;;
54412;SDS011;41533;51.390;0.074;2022-08-21T15:43:22;6.80;;;2.42;;
54412;SDS011;41533;51.390;0.074;2022-08-21T15:45:58;5.65;;;2.15;;
54412;SDS011;41533;51.390;0.074;2022-08-21T15:48:25;5.72;;;1.92;;
54412;SDS011;41533;51.390;0.074;2022-08-21T15:50:52;3.38;;;1.90;;
54412;SDS011;41533;51.390;0.074;2022-08-21T15:53:19;4.43;;;2.40;;
54412;SDS011;41533;51.390;0.074;2022-08-21T15:55:47;12.43;;;6.10;;
54412;SDS011;41533;51.390;0.074;2022-08-21T15:58:15;18.90;;;6.30;;
54412;SDS011;41533;51.390;0.074;2022-08-21T16:00:43;5.53;;;3.40;;
54412;SDS011;41533;51.390;0.074;2022-08-21T16:03:12;7.22;;;3.10;;
54412;SDS011;41533;51.390;0.074;2022-08-21T16:05:43;5.97;;;2.95;;
54412;SDS011;41533;51.390;0.074;2022-08-21T16:08:10;8.63;;;3.05;;
54412;SDS011;41533;51.390;0.074;2022-08-21T16:10:38;5.60;;;2.55;;
54412;SDS011;41533;51.390;0.074;2022-08-21T16:13:16;7.30;;;2.50;;
54412;SDS011;41533;51.390;0.074;2022-08-21T16:15:45;3.83;;;2.42;;
54412;SDS011;41533;51.390;0.074;2022-08-21T16:18:12;3.60;;;2.28;;
54412;SDS011;41533;51.390;0.074;2022-08-21T16:20:40;7.82;;;2.17;;
54412;SDS011;41533;51.390;0.074;2022-08-21T16:23:07;5.88;;;2.00;;
54412;SDS011;41533;51.390;0.074;2022-08-21T16:25:38;4.47;;;1.63;;
54412;SDS011;41533;51.390;0.074;2022-08-21T16:28:07;4.35;;;2.13;;
54412;SDS011;41533;51.390;0.074;2022-08-21T16:30:35;5.18;;;2.40;;
54412;SDS011;41533;51.390;0.074;2022-08-21T16:33:03;7.70;;;2.00;;
54412;SDS011;41533;51.390;0.074;2022-08-21T16:35:31;5.55;;;2.28;;
54412;SDS011;41533;51.390;0.074;2022-08-21T16:37:58;5.25;;;2.65;;